Decoded Metar for LPMA (FUNCHAL/MADEIRA in PORTUGAL) (IATA:N/A) | Meteo·Mobile Aviation Weather
aviador You're here:

LPMA Decoded Metar

FUNCHAL/MADEIRA in PORTUGAL
Report Time2019-02-18 10:30:00
UTC Time2019-02-18 10:40:58
Flight Rules mvfr MVFR
Wind010° at 13 Gusting to 24 kt
W.Decomp.*RWY 05: 10.8 kt HW 7.3 kt LCW
W.Rank010° ranks 2
Current wind is above 010° avg. (10.6)
Visibility9999 m
Phenomena:N/A
Clouds:Broken 016 Hf
Scattered 030 Hf
Expected CloudBase > 2,800 ft AGL from Temp-Dew spread
Ceiling1,600 ft
Temp15°C (ISA 0)
Dew Point08°C (63% RH)
AAT9.9°C
QNH1025 hPa
Density Alt-36 ft
Elevation180 ft
Report Wrong Elevation
Raw Report
METAR LPMA 181030Z 01013G24KT 330V050 9999 BKN016 SCT030 15/08 Q1025=

Extra information for LPMA:More info

Metar Taf Metar & Taf Last 4 Metars F.Rules Stats Wind Profile Meteogram Temp Stats Airport Information Weather charts Add Link Nearby VenuesMetar ALERT Operation Metar Decoded Social comments